| time (UTC) | temp C | wind direction | speed KPH | gust KPH | rain 1hr cm | rain 24hr cm | rain mn cm | humidity % | barometer mb |
| 20260507093336 | 18 | 70 | 9.7 | 0.0 | 0.00 | 0.00 | 0.00 | 73 | 1015.0 |
| 20260507091837 | 18 | 1.6 | 0.0 | 0.00 | 0.00 | 0.00 | 68 | 1015.0 | |
| 20260507090335 | 18 | 1.6 | 0.0 | 0.00 | 0.00 | 0.00 | 68 | 1015.0 | |
| 20260507084835 | 20 | 3.2 | 0.0 | 0.00 | 0.00 | 0.00 | 56 | 1014.0 | |
| 20260507083336 | 20 | 3.2 | 0.0 | 0.00 | 0.00 | 0.00 | 56 | 1014.0 | |
| 20260507081835 | 20 | 3.2 | 0.0 | 0.00 | 0.00 | 0.00 | 53 | 1014.0 | |
| 20260507080336 | 20 | 3.2 | 0.0 | 0.00 | 0.00 | 0.00 | 53 | 1014.0 | |
| 20260507074836 | 20 | 3.2 | 0.0 | 0.00 | 0.00 | 0.00 | 53 | 1014.0 | |
| 20260507073335 | 20 | 3.2 | 0.0 | 0.00 | 0.00 | 0.00 | 53 | 1014.0 | |
| 20260507071836 | 20 | 150 | 4.8 | 0.0 | 0.00 | 0.00 | 0.00 | 53 | 1014.0 |
| 20260507070335 | 20 | 150 | 4.8 | 0.0 | 0.00 | 0.00 | 0.00 | 53 | 1014.0 |
| 20260507064835 | 18 | 3.2 | 0.0 | 0.00 | 0.00 | 0.00 | 56 | 1014.0 | |
| 20260507063335 | 18 | 3.2 | 0.0 | 0.00 | 0.00 | 0.00 | 56 | 1014.0 | |
| 20260507061845 | 17 | 3.2 | 0.0 | 0.00 | 0.00 | 0.00 | 60 | 1013.0 | |
| 20260507060335 | 17 | 3.2 | 0.0 | 0.00 | 0.00 | 0.00 | 60 | 1013.0 | |
| 20260507054835 | 17 | 70 | 4.8 | 0.0 | 0.00 | 0.00 | 0.00 | 60 | 1013.0 |
| 20260507053343 | 17 | 70 | 4.8 | 0.0 | 0.00 | 0.00 | 0.00 | 60 | 1013.0 |
| 20260507051836 | 15 | 290 | 4.8 | 0.0 | 0.00 | 0.00 | 0.00 | 72 | 1013.0 |
| 20260507050335 | 15 | 290 | 4.8 | 0.0 | 0.00 | 0.00 | 0.00 | 72 | 1013.0 |
| 20260507044832 | 15 | 4.8 | 0.0 | 0.00 | 0.00 | 0.00 | 72 | 1013.0 | |
| 20260507043335 | 15 | 4.8 | 0.0 | 0.00 | 0.00 | 0.00 | 72 | 1013.0 | |
| 20260507041835 | 13 | 90 | 8.0 | 0.0 | 0.00 | 0.00 | 0.00 | 72 | 1013.0 |
| 20260507040335 | 13 | 90 | 8.0 | 0.0 | 0.00 | 0.00 | 0.00 | 72 | 1013.0 |
| 20260507034832 | 12 | 90 | 9.7 | 0.0 | 0.00 | 0.00 | 0.00 | 82 | 1013.0 |
| 20260507033335 | 12 | 90 | 9.7 | 0.0 | 0.00 | 0.00 | 0.00 | 82 | 1013.0 |
| 20260507031835 | 12 | 80 | 4.8 | 0.0 | 0.00 | 0.00 | 0.00 | 82 | 1013.0 |
| 20260507030335 | 12 | 80 | 4.8 | 0.0 | 0.00 | 0.00 | 0.00 | 82 | 1013.0 |
| 20260507024832 | 12 | 90 | 8.0 | 0.0 | 0.00 | 0.00 | 0.00 | 82 | 1013.0 |
| 20260507023335 | 12 | 90 | 8.0 | 0.0 | 0.00 | 0.00 | 0.00 | 82 | 1013.0 |
| 20260507021835 | 12 | 90 | 8.0 | 0.0 | 0.00 | 0.00 | 0.00 | 77 | 1013.0 |
| 20260507020335 | 12 | 90 | 8.0 | 0.0 | 0.00 | 0.00 | 0.00 | 77 | 1013.0 |
| 20260507014835 | 12 | 80 | 11.3 | 0.0 | 0.00 | 0.00 | 0.00 | 82 | 1012.0 |
| 20260507013335 | 12 | 80 | 11.3 | 0.0 | 0.00 | 0.00 | 0.00 | 82 | 1012.0 |
| 20260507011835 | 12 | 90 | 11.3 | 0.0 | 0.00 | 0.00 | 0.00 | 72 | 1012.0 |
| 20260507010335 | 12 | 90 | 11.3 | 0.0 | 0.00 | 0.00 | 0.00 | 72 | 1012.0 |
| 20260507004835 | 11 | 100 | 9.7 | 0.0 | 0.00 | 0.00 | 0.00 | 82 | 1012.0 |
| 20260507003336 | 11 | 100 | 9.7 | 0.0 | 0.00 | 0.00 | 0.00 | 82 | 1012.0 |
| 20260507001835 | 13 | 80 | 8.0 | 0.0 | 0.00 | 0.00 | 0.00 | 72 | 1012.0 |
| 20260507000336 | 13 | 80 | 8.0 | 0.0 | 0.00 | 0.00 | 0.00 | 72 | 1012.0 |
| 20260506234835 | 13 | 3.2 | 0.0 | 0.00 | 0.00 | 0.00 | 67 | 1012.0 | |
| 20260506233335 | 13 | 3.2 | 0.0 | 0.00 | 0.00 | 0.00 | 67 | 1012.0 | |
| 20260506231836 | 12 | 80 | 3.2 | 0.0 | 0.00 | 0.00 | 0.00 | 72 | 1012.0 |
| 20260506230335 | 12 | 80 | 3.2 | 0.0 | 0.00 | 0.00 | 0.00 | 72 | 1012.0 |
| 20260506224831 | 13 | 70 | 4.8 | 0.0 | 0.00 | 0.00 | 0.00 | 67 | 1012.0 |
| 20260506223335 | 13 | 70 | 4.8 | 0.0 | 0.00 | 0.00 | 0.00 | 67 | 1012.0 |
| 20260506221835 | 13 | 70 | 8.0 | 0.0 | 0.00 | 0.00 | 0.00 | 72 | 1012.0 |
| 20260506220334 | 13 | 70 | 8.0 | 0.0 | 0.00 | 0.00 | 0.00 | 72 | 1012.0 |
| 20260506214851 | 16 | 50 | 4.8 | 0.0 | 0.00 | 0.00 | 0.00 | 59 | 1012.0 |
| 20260506213335 | 16 | 50 | 4.8 | 0.0 | 0.00 | 0.00 | 0.00 | 59 | 1012.0 |
| 20260506211832 | 16 | 50 | 8.0 | 0.0 | 0.00 | 0.00 | 0.00 | 63 | 1012.0 |
| 20260506210335 | 16 | 50 | 8.0 | 0.0 | 0.00 | 0.00 | 0.00 | 63 | 1012.0 |
| 20260506204836 | 15 | 90 | 3.2 | 0.0 | 0.00 | 0.00 | 0.00 | 63 | 1012.0 |
| 20260506203335 | 15 | 90 | 3.2 | 0.0 | 0.00 | 0.00 | 0.00 | 63 | 1012.0 |
| 20260506201832 | 17 | 20 | 4.8 | 0.0 | 0.00 | 0.00 | 0.00 | 59 | 1012.0 |
| 20260506200335 | 17 | 20 | 4.8 | 0.0 | 0.00 | 0.00 | 0.00 | 59 | 1012.0 |
| 20260506194854 | 17 | 30 | 8.0 | 0.0 | 0.00 | 0.00 | 0.00 | 56 | 1012.0 |
| 20260506193359 | 17 | 30 | 8.0 | 0.0 | 0.00 | 0.00 | 0.00 | 56 | 1012.0 |
| 20260506191836 | 17 | 20 | 4.8 | 0.0 | 0.00 | 0.00 | 0.00 | 56 | 1011.0 |
| 20260506190335 | 17 | 20 | 4.8 | 0.0 | 0.00 | 0.00 | 0.00 | 56 | 1011.0 |
| 20260506184840 | 18 | 360 | 8.0 | 0.0 | 0.00 | 0.00 | 0.00 | 52 | 1011.0 |
| 20260506183335 | 18 | 360 | 8.0 | 0.0 | 0.00 | 0.00 | 0.00 | 52 | 1011.0 |
| 20260506181835 | 20 | 350 | 4.8 | 0.0 | 0.00 | 0.00 | 0.00 | 49 | 1011.0 |
| 20260506180336 | 20 | 350 | 4.8 | 0.0 | 0.00 | 0.00 | 0.00 | 49 | 1011.0 |
| 20260506174836 | 22 | 300 | 4.8 | 0.0 | 0.00 | 0.00 | 0.00 | 41 | 1011.0 |
| 20260506173335 | 22 | 300 | 4.8 | 0.0 | 0.00 | 0.00 | 0.00 | 41 | 1011.0 |
| 20260506171835 | 23 | 280 | 11.3 | 0.0 | 0.00 | 0.00 | 0.00 | 36 | 1011.0 |
| 20260506170335 | 23 | 280 | 11.3 | 0.0 | 0.00 | 0.00 | 0.00 | 36 | 1011.0 |
| 20260506164835 | 23 | 270 | 12.9 | 0.0 | 0.00 | 0.00 | 0.00 | 36 | 1011.0 |
| 20260506163335 | 23 | 270 | 12.9 | 0.0 | 0.00 | 0.00 | 0.00 | 36 | 1011.0 |
| 20260506161835 | 26 | 260 | 17.7 | 0.0 | 0.00 | 0.00 | 0.00 | 32 | 1010.0 |
| 20260506160335 | 26 | 260 | 17.7 | 0.0 | 0.00 | 0.00 | 0.00 | 32 | 1010.0 |
| 20260506154836 | 26 | 250 | 14.5 | 0.0 | 0.00 | 0.00 | 0.00 | 30 | 1011.0 |
| 20260506153335 | 26 | 250 | 14.5 | 0.0 | 0.00 | 0.00 | 0.00 | 30 | 1011.0 |
| 20260506151835 | 26 | 270 | 9.7 | 0.0 | 0.00 | 0.00 | 0.00 | 30 | 1011.0 |
| 20260506150341 | 26 | 270 | 9.7 | 0.0 | 0.00 | 0.00 | 0.00 | 30 | 1011.0 |
| 20260506144835 | 27 | 220 | 12.9 | 0.0 | 0.00 | 0.00 | 0.00 | 28 | 1011.0 |
| 20260506143347 | 27 | 220 | 12.9 | 0.0 | 0.00 | 0.00 | 0.00 | 28 | 1011.0 |
| 20260506141835 | 27 | 270 | 11.3 | 0.0 | 0.00 | 0.00 | 0.00 | 28 | 1011.0 |
| 20260506140454 | 27 | 270 | 11.3 | 0.0 | 0.00 | 0.00 | 0.00 | 28 | 1011.0 |
| 20260506134900 | 27 | 240 | 12.9 | 0.0 | 0.00 | 0.00 | 0.00 | 26 | 1011.0 |
| 20260506133335 | 27 | 240 | 12.9 | 0.0 | 0.00 | 0.00 | 0.00 | 26 | 1011.0 |
| 20260506131835 | 27 | 240 | 12.9 | 0.0 | 0.00 | 0.00 | 0.00 | 28 | 1011.0 |
| 20260506130344 | 27 | 240 | 12.9 | 0.0 | 0.00 | 0.00 | 0.00 | 28 | 1011.0 |
| 20260506124836 | 26 | 260 | 12.9 | 0.0 | 0.00 | 0.00 | 0.00 | 26 | 1012.0 |
| 20260506123335 | 26 | 260 | 12.9 | 0.0 | 0.00 | 0.00 | 0.00 | 26 | 1012.0 |
| 20260506121836 | 26 | 4.8 | 0.0 | 0.00 | 0.00 | 0.00 | 26 | 1012.0 | |
| 20260506120335 | 26 | 4.8 | 0.0 | 0.00 | 0.00 | 0.00 | 26 | 1012.0 | |
| 20260506114835 | 26 | 220 | 11.3 | 0.0 | 0.00 | 0.00 | 0.00 | 26 | 1012.0 |
| 20260506113336 | 26 | 220 | 11.3 | 0.0 | 0.00 | 0.00 | 0.00 | 26 | 1012.0 |
| 20260506111835 | 25 | 240 | 12.9 | 0.0 | 0.00 | 0.00 | 0.00 | 28 | 1013.0 |
| 20260506110335 | 25 | 240 | 12.9 | 0.0 | 0.00 | 0.00 | 0.00 | 28 | 1013.0 |
| 20260506104835 | 25 | 4.8 | 0.0 | 0.00 | 0.00 | 0.00 | 32 | 1013.0 | |
| 20260506103335 | 25 | 4.8 | 0.0 | 0.00 | 0.00 | 0.00 | 32 | 1013.0 | |
| 20260506101836 | 23 | 200 | 11.3 | 0.0 | 0.00 | 0.00 | 0.00 | 31 | 1013.0 |
| 20260506100335 | 23 | 200 | 11.3 | 0.0 | 0.00 | 0.00 | 0.00 | 31 | 1013.0 |
| 20260506094835 | 23 | 220 | 9.7 | 0.0 | 0.00 | 0.00 | 0.00 | 31 | 1013.0 |